Time;durP1;ratioP1;P1;durP2;ratioP2;P2;SDS_P1;SDS_P2;PMS_P1;PMS_P2;Temp;Humidity;BMP_temperature;BMP_pressure;BME280_temperature;BME280_humidity;BME280_pressure;Samples;Min_cycle;Max_cycle;Signal;HPM_P1;HPM_P2
2024/01/05 00:01:45;;;;;;;3.35;3.05;;;;;;;;;;5073062;28;20189;-61
2024/01/05 00:04:12;;;;;;;3.47;3.20;;;;;;;;;;5073184;28;20217;-61
2024/01/05 00:06:39;;;;;;;3.70;3.40;;;;;;;;;;5073061;28;20200;-61
2024/01/05 00:09:07;;;;;;;4.30;3.70;;;;;;;;;;5073007;28;20228;-61
2024/01/05 00:11:34;;;;;;;3.60;3.30;;;;;;;;;;5072393;28;20356;-61
2024/01/05 00:14:02;;;;;;;3.75;3.40;;;;;;;;;;5073158;28;20193;-61
2024/01/05 00:16:29;;;;;;;2.92;2.72;;;;;;;;;;5073357;28;20284;-61
2024/01/05 00:18:56;;;;;;;3.50;3.20;;;;;;;;;;5073036;28;20272;-61
2024/01/05 00:21:23;;;;;;;4.07;3.70;;;;;;;;;;5072867;28;20284;-61
2024/01/05 00:23:51;;;;;;;3.15;2.95;;;;;;;;;;5073138;28;20216;-61
2024/01/05 00:26:19;;;;;;;4.65;3.10;;;;;;;;;;5073020;28;20195;-61
2024/01/05 00:28:47;;;;;;;3.30;3.10;;;;;;;;;;5072914;28;20189;-61
2024/01/05 00:31:15;;;;;;;4.00;3.60;;;;;;;;;;5072901;28;20189;-61
2024/01/05 00:33:42;;;;;;;3.70;3.40;;;;;;;;;;5072863;28;20189;-61
2024/01/05 00:36:10;;;;;;;3.28;2.97;;;;;;;;;;5072737;28;20609;-61
2024/01/05 00:38:37;;;;;;;3.05;2.75;;;;;;;;;;5073007;28;20613;-61
2024/01/05 00:41:05;;;;;;;4.13;3.10;;;;;;;;;;5072904;28;20228;-61
2024/01/05 00:43:33;;;;;;;3.60;3.25;;;;;;;;;;5072715;28;20299;-61
2024/01/05 00:46:00;;;;;;;3.80;3.50;;;;;;;;;;5072716;28;20284;-61
2024/01/05 00:48:27;;;;;;;3.92;3.63;;;;;;;;;;5072651;28;20623;-61
2024/01/05 00:50:54;;;;;;;3.72;3.42;;;;;;;;;;5073141;28;20195;-61
2024/01/05 00:53:21;;;;;;;3.78;3.35;;;;;;;;;;5072746;28;20211;-61
2024/01/05 00:55:48;;;;;;;3.10;2.80;;;;;;;;;;5072650;28;20312;-61
2024/01/05 00:58:15;;;;;;;3.30;3.00;;;;;;;;;;5072622;28;20276;-61
2024/01/05 01:00:43;;;;;;;3.97;3.22;;;;;;;;;;5072657;28;20620;-61
2024/01/05 01:03:10;;;;;;;3.72;2.75;;;;;;;;;;5072394;28;20213;-61
2024/01/05 01:05:37;;;;;;;3.53;2.88;;;;;;;;;;5072691;28;20275;-61
2024/01/05 01:08:04;;;;;;;3.53;3.22;;;;;;;;;;5072638;28;20280;-61
2024/01/05 01:10:31;;;;;;;3.50;3.20;;;;;;;;;;5072582;28;20623;-61
2024/01/05 01:12:58;;;;;;;2.95;2.75;;;;;;;;;;5072514;28;20284;-61
2024/01/05 01:15:25;;;;;;;3.10;2.90;;;;;;;;;;5072430;28;20185;-61
2024/01/05 01:17:53;;;;;;;3.17;2.88;;;;;;;;;;5072380;28;20189;-61
2024/01/05 01:20:20;;;;;;;3.33;3.13;;;;;;;;;;5072630;28;20734;-61
2024/01/05 01:22:47;;;;;;;3.75;3.45;;;;;;;;;;5073522;28;20199;-61
2024/01/05 01:25:14;;;;;;;2.67;2.47;;;;;;;;;;5076183;28;20217;-61
2024/01/05 01:27:41;;;;;;;5.80;2.92;;;;;;;;;;5076057;28;20620;-61
2024/01/05 01:30:09;;;;;;;3.45;3.15;;;;;;;;;;5075902;28;20276;-61
2024/01/05 01:32:37;;;;;;;4.38;2.90;;;;;;;;;;5076144;28;20185;-61
2024/01/05 01:35:05;;;;;;;2.97;2.78;;;;;;;;;;5076040;28;20272;-61
2024/01/05 01:37:32;;;;;;;3.25;2.67;;;;;;;;;;5075991;28;20212;-61
2024/01/05 01:39:59;;;;;;;3.58;3.10;;;;;;;;;;5075964;28;20657;-61
2024/01/05 01:42:26;;;;;;;3.38;3.08;;;;;;;;;;5075795;28;20189;-61
2024/01/05 01:44:53;;;;;;;3.67;2.90;;;;;;;;;;5075926;28;20231;-61
2024/01/05 01:47:20;;;;;;;3.53;3.22;;;;;;;;;;5075883;28;20193;-61
2024/01/05 01:49:47;;;;;;;3.40;3.10;;;;;;;;;;5075799;28;20191;-61
2024/01/05 01:52:16;;;;;;;3.38;3.08;;;;;;;;;;5075723;28;20595;-61
2024/01/05 01:54:43;;;;;;;3.25;3.00;;;;;;;;;;5075580;28;20221;-61
2024/01/05 01:57:10;;;;;;;3.13;2.92;;;;;;;;;;5075459;28;20195;-61
2024/01/05 01:59:37;;;;;;;5.65;3.10;;;;;;;;;;5075629;28;20272;-61
2024/01/05 02:02:05;;;;;;;4.00;2.80;;;;;;;;;;5075647;28;20619;-61
2024/01/05 02:04:32;;;;;;;3.65;3.35;;;;;;;;;;5075472;28;20216;-61
2024/01/05 02:06:59;;;;;;;4.40;3.70;;;;;;;;;;5075282;28;20718;-61
2024/01/05 02:09:28;;;;;;;3.72;3.42;;;;;;;;;;5075307;28;20193;-61
2024/01/05 02:11:55;;;;;;;3.17;2.83;;;;;;;;;;5075223;28;20288;-61
2024/01/05 02:14:22;;;;;;;3.50;3.25;;;;;;;;;;5075164;28;20661;-61
2024/01/05 02:16:49;;;;;;;3.47;3.17;;;;;;;;;;5075564;28;20286;-61
2024/01/05 02:19:16;;;;;;;4.07;3.78;;;;;;;;;;5075259;28;20186;-61
2024/01/05 02:21:44;;;;;;;4.93;4.05;;;;;;;;;;5075106;28;20195;-61
2024/01/05 02:24:12;;;;;;;4.03;3.40;;;;;;;;;;5074845;28;20307;-61
2024/01/05 02:26:40;;;;;;;3.83;3.53;;;;;;;;;;5074888;28;20192;-61
2024/01/05 02:29:08;;;;;;;4.35;3.40;;;;;;;;;;5075051;28;20555;-61
2024/01/05 02:31:35;;;;;;;4.22;3.33;;;;;;;;;;5075007;28;20285;-61
2024/01/05 02:34:02;;;;;;;4.30;3.40;;;;;;;;;;5074022;28;20276;-61
2024/01/05 02:36:29;;;;;;;4.55;3.75;;;;;;;;;;5074744;28;20276;-61
2024/01/05 02:38:55;;;;;;;3.50;3.15;;;;;;;;;;5074675;28;20189;-61
2024/01/05 02:41:24;;;;;;;3.65;3.35;;;;;;;;;;5074864;28;20196;-61
2024/01/05 02:43:51;;;;;;;5.68;4.07;;;;;;;;;;5074694;28;20263;-61
2024/01/05 02:46:18;;;;;;;3.85;3.55;;;;;;;;;;5074669;28;20186;-61
2024/01/05 02:48:45;;;;;;;3.33;3.13;;;;;;;;;;5074633;28;20213;-61
2024/01/05 02:51:11;;;;;;;4.85;3.10;;;;;;;;;;5074497;28;20552;-61
2024/01/05 02:53:38;;;;;;;6.28;4.10;;;;;;;;;;5074387;28;20751;-61
2024/01/05 02:56:06;;;;;;;4.28;3.47;;;;;;;;;;5074607;28;20280;-61
2024/01/05 02:58:34;;;;;;;5.22;3.30;;;;;;;;;;5074486;28;20268;-61
2024/01/05 03:01:01;;;;;;;7.70;3.20;;;;;;;;;;5074559;28;20280;-61
2024/01/05 03:03:29;;;;;;;3.70;3.40;;;;;;;;;;5074387;28;20615;-61
2024/01/05 03:05:56;;;;;;;5.28;3.53;;;;;;;;;;5074122;28;20308;-61
2024/01/05 03:08:23;;;;;;;3.58;3.28;;;;;;;;;;5074125;28;20649;-61
2024/01/05 03:10:50;;;;;;;3.80;3.50;;;;;;;;;;5073994;28;20652;-60
2024/01/05 03:13:17;;;;;;;2.70;2.50;;;;;;;;;;5074116;28;20718;-61
2024/01/05 03:15:45;;;;;;;4.15;3.25;;;;;;;;;;5074038;28;20284;-61
2024/01/05 03:18:12;;;;;;;3.67;3.38;;;;;;;;;;5073948;28;20193;-61
2024/01/05 03:20:40;;;;;;;3.45;3.15;;;;;;;;;;5073890;28;20215;-61
2024/01/05 03:23:08;;;;;;;3.20;3.00;;;;;;;;;;5073973;28;20594;-61
2024/01/05 03:25:34;;;;;;;3.38;3.08;;;;;;;;;;5073849;28;20185;-61
2024/01/05 03:28:01;;;;;;;3.05;2.83;;;;;;;;;;5073803;28;20195;-61
2024/01/05 03:30:28;;;;;;;3.05;2.80;;;;;;;;;;5073770;28;20276;-61
2024/01/05 03:32:57;;;;;;;3.17;2.80;;;;;;;;;;5073607;28;20199;-61
2024/01/05 03:35:23;;;;;;;2.72;2.53;;;;;;;;;;5073894;28;20199;-61
2024/01/05 03:37:50;;;;;;;3.20;2.75;;;;;;;;;;5073677;28;20612;-61
2024/01/05 03:40:17;;;;;;;2.75;2.55;;;;;;;;;;5073654;28;20189;-61
2024/01/05 03:42:44;;;;;;;2.67;2.47;;;;;;;;;;5073573;28;20189;-61
2024/01/05 03:45:11;;;;;;;3.10;2.88;;;;;;;;;;5073309;28;20221;-61
2024/01/05 03:47:38;;;;;;;3.25;2.85;;;;;;;;;;5073590;28;20189;-61
2024/01/05 03:50:07;;;;;;;2.75;2.40;;;;;;;;;;5073554;28;20185;-61
2024/01/05 03:52:34;;;;;;;2.90;2.63;;;;;;;;;;5073556;28;20196;-61
2024/01/05 03:55:01;;;;;;;3.05;2.85;;;;;;;;;;5073311;28;20221;-61
2024/01/05 03:57:28;;;;;;;3.30;3.08;;;;;;;;;;5073618;28;20191;-61
2024/01/05 03:59:55;;;;;;;2.88;2.63;;;;;;;;;;5073185;28;20303;-61
2024/01/05 04:02:22;;;;;;;3.65;3.15;;;;;;;;;;5073308;28;20195;-61
2024/01/05 04:04:49;;;;;;;3.15;2.85;;;;;;;;;;5073242;28;20320;-61
2024/01/05 04:07:17;;;;;;;2.60;2.35;;;;;;;;;;5073221;28;20646;-60
2024/01/05 04:09:44;;;;;;;3.50;2.85;;;;;;;;;;5073162;28;20276;-61
2024/01/05 04:12:11;;;;;;;2.20;2.10;;;;;;;;;;5073050;28;20280;-61
2024/01/05 04:14:39;;;;;;;3.15;2.90;;;;;;;;;;5073025;28;20190;-61
2024/01/05 04:17:06;;;;;;;2.65;2.50;;;;;;;;;;5073033;28;20193;-61
2024/01/05 04:19:32;;;;;;;3.35;3.05;;;;;;;;;;5073140;28;20620;-61
2024/01/05 04:21:59;;;;;;;6.30;3.03;;;;;;;;;;5072931;28;20725;-61
2024/01/05 04:24:28;;;;;;;3.75;2.70;;;;;;;;;;5072926;28;20223;-61
2024/01/05 04:26:55;;;;;;;4.50;2.90;;;;;;;;;;5073004;28;20212;-61
2024/01/05 04:29:21;;;;;;;2.90;2.70;;;;;;;;;;5073026;28;20189;-61
2024/01/05 04:31:48;;;;;;;3.63;3.15;;;;;;;;;;5073021;28;20279;-61
2024/01/05 04:34:16;;;;;;;3.30;3.00;;;;;;;;;;5073211;28;20193;-61
2024/01/05 04:36:44;;;;;;;4.35;3.30;;;;;;;;;;5073008;28;20633;-61
2024/01/05 04:39:12;;;;;;;4.28;3.17;;;;;;;;;;5072780;28;20193;-61
2024/01/05 04:41:40;;;;;;;2.90;2.70;;;;;;;;;;5072665;28;20189;-61
2024/01/05 04:44:07;;;;;;;7.57;3.85;;;;;;;;;;5072856;28;20557;-61
2024/01/05 04:46:34;;;;;;;3.63;3.42;;;;;;;;;;5072954;28;20215;-61
2024/01/05 04:49:01;;;;;;;4.10;3.30;;;;;;;;;;5072787;28;20295;-61
2024/01/05 04:51:28;;;;;;;5.43;4.70;;;;;;;;;;5072778;28;20619;-61
2024/01/05 04:53:55;;;;;;;4.38;3.97;;;;;;;;;;5072522;28;20221;-61
2024/01/05 04:56:22;;;;;;;4.15;3.55;;;;;;;;;;5072554;28;20193;-61
2024/01/05 04:58:51;;;;;;;3.60;3.35;;;;;;;;;;5075856;28;20615;-61
2024/01/05 05:01:18;;;;;;;3.85;3.53;;;;;;;;;;5076613;28;20641;-61
2024/01/05 05:03:45;;;;;;;5.50;3.45;;;;;;;;;;5076605;28;20239;-61
2024/01/05 05:06:12;;;;;;;4.20;3.80;;;;;;;;;;5076690;28;20185;-61
2024/01/05 05:08:39;;;;;;;5.88;3.70;;;;;;;;;;5076467;28;20276;-61
2024/01/05 05:11:06;;;;;;;4.38;3.97;;;;;;;;;;5076315;28;20190;-60
2024/01/05 05:13:33;;;;;;;4.25;3.30;;;;;;;;;;5076603;28;20189;-61
2024/01/05 05:16:01;;;;;;;3.78;3.38;;;;;;;;;;5076458;28;20199;-60
2024/01/05 05:18:28;;;;;;;5.68;4.00;;;;;;;;;;5076159;28;20736;-61
2024/01/05 05:20:55;;;;;;;4.03;3.72;;;;;;;;;;5076154;28;20185;-61
2024/01/05 05:23:22;;;;;;;4.55;3.45;;;;;;;;;;5076071;28;20600;-61
2024/01/05 05:25:49;;;;;;;3.70;3.40;;;;;;;;;;5076176;28;20227;-61
2024/01/05 05:28:16;;;;;;;3.42;3.22;;;;;;;;;;5076228;28;20279;-61
2024/01/05 05:30:43;;;;;;;3.83;3.38;;;;;;;;;;5076113;28;20276;-61
2024/01/05 05:33:11;;;;;;;3.72;3.33;;;;;;;;;;5076053;28;20447;-61
2024/01/05 05:35:38;;;;;;;6.10;3.00;;;;;;;;;;5076078;28;20720;-60
2024/01/05 05:38:06;;;;;;;5.95;3.00;;;;;;;;;;5075778;28;20215;-60
2024/01/05 05:40:33;;;;;;;4.43;3.50;;;;;;;;;;5075991;28;20200;-61
2024/01/05 05:43:00;;;;;;;4.28;2.95;;;;;;;;;;5075877;28;20198;-61
2024/01/05 05:45:27;;;;;;;3.45;3.15;;;;;;;;;;5075780;28;20216;-61
2024/01/05 05:47:54;;;;;;;3.83;3.40;;;;;;;;;;5075868;28;20185;-61
2024/01/05 05:50:22;;;;;;;9.45;3.30;;;;;;;;;;5075607;28;20281;-61
2024/01/05 05:52:51;;;;;;;7.30;3.45;;;;;;;;;;5075617;28;20568;-61
2024/01/05 05:55:18;;;;;;;3.33;3.03;;;;;;;;;;5075697;28;20577;-61
2024/01/05 05:57:45;;;;;;;2.85;2.65;;;;;;;;;;5075963;28;20276;-60
2024/01/05 06:00:12;;;;;;;4.35;2.85;;;;;;;;;;5075558;28;20193;-61
2024/01/05 06:02:39;;;;;;;5.20;3.15;;;;;;;;;;5075453;28;20200;-61
2024/01/05 06:05:07;;;;;;;4.80;4.22;;;;;;;;;;5075309;28;20259;-61
2024/01/05 06:07:35;;;;;;;4.20;3.30;;;;;;;;;;5075821;28;20276;-60
2024/01/05 06:10:04;;;;;;;5.20;3.25;;;;;;;;;;5074097;28;20549;-61
2024/01/05 06:12:31;;;;;;;3.70;3.28;;;;;;;;;;5075344;28;20197;-61
2024/01/05 06:14:58;;;;;;;4.55;3.40;;;;;;;;;;5075115;28;20850;-61
2024/01/05 06:17:25;;;;;;;4.15;3.78;;;;;;;;;;5075124;28;20220;-61
2024/01/05 06:19:52;;;;;;;3.85;3.55;;;;;;;;;;5075341;28;20201;-61
2024/01/05 06:22:19;;;;;;;5.45;3.65;;;;;;;;;;5075238;28;20193;-61
2024/01/05 06:24:47;;;;;;;4.65;3.28;;;;;;;;;;5075049;28;20221;-61
2024/01/05 06:27:14;;;;;;;3.08;2.78;;;;;;;;;;5074959;28;20593;-61
2024/01/05 06:29:41;;;;;;;3.75;3.45;;;;;;;;;;5074956;28;20740;-61
2024/01/05 06:32:08;;;;;;;4.20;3.80;;;;;;;;;;5074996;28;20671;-61
2024/01/05 06:34:35;;;;;;;3.28;3.05;;;;;;;;;;5074992;28;20193;-61
2024/01/05 06:37:02;;;;;;;3.58;3.17;;;;;;;;;;5074882;28;20200;-61
2024/01/05 06:39:29;;;;;;;3.58;2.75;;;;;;;;;;5074795;28;20308;-61
2024/01/05 06:41:57;;;;;;;5.45;3.80;;;;;;;;;;5074691;28;20552;-61
2024/01/05 06:44:24;;;;;;;3.88;2.85;;;;;;;;;;5074574;28;20289;-61
2024/01/05 06:46:52;;;;;;;4.18;3.78;;;;;;;;;;5074518;28;20200;-61
2024/01/05 06:49:19;;;;;;;7.10;4.20;;;;;;;;;;5074364;28;20653;-60
2024/01/05 06:51:46;;;;;;;4.38;3.92;;;;;;;;;;5074636;28;20196;-61
2024/01/05 06:54:13;;;;;;;6.63;3.90;;;;;;;;;;5074158;28;20716;-61
2024/01/05 06:56:42;;;;;;;4.13;3.83;;;;;;;;;;5074349;28;20284;-61
2024/01/05 06:59:10;;;;;;;3.75;3.45;;;;;;;;;;5074272;28;20648;-61
2024/01/05 07:01:37;;;;;;;4.97;4.03;;;;;;;;;;5074055;28;20723;-61
2024/01/05 07:04:07;;;;;;;5.82;3.20;;;;;;;;;;5074360;28;20193;-61
2024/01/05 07:06:34;;;;;;;4.53;4.03;;;;;;;;;;5074234;28;20626;-61
2024/01/05 07:09:01;;;;;;;4.03;3.72;;;;;;;;;;5074117;28;20200;-61
2024/01/05 07:11:28;;;;;;;4.22;3.83;;;;;;;;;;5074062;28;20272;-61
2024/01/05 07:13:55;;;;;;;3.83;3.35;;;;;;;;;;5073857;28;20193;-61
2024/01/05 07:16:23;;;;;;;4.72;3.53;;;;;;;;;;5074408;28;20199;-61
2024/01/05 07:18:50;;;;;;;5.25;4.32;;;;;;;;;;5074060;28;20185;-61
2024/01/05 07:21:17;;;;;;;7.18;5.93;;;;;;;;;;5073601;28;20194;-61
2024/01/05 07:23:44;;;;;;;5.80;4.68;;;;;;;;;;5073873;28;20276;-61
2024/01/05 07:26:11;;;;;;;4.82;4.25;;;;;;;;;;5073589;28;20213;-61
2024/01/05 07:28:38;;;;;;;5.85;4.50;;;;;;;;;;5073997;28;20296;-61
2024/01/05 07:31:05;;;;;;;4.90;4.38;;;;;;;;;;5073889;28;20489;-61
2024/01/05 07:33:34;;;;;;;5.43;4.93;;;;;;;;;;5073738;28;20192;-61
2024/01/05 07:36:04;;;;;;;5.35;4.82;;;;;;;;;;5073690;28;20189;-61
2024/01/05 07:38:31;;;;;;;6.80;5.22;;;;;;;;;;5073577;28;20185;-60
2024/01/05 07:40:58;;;;;;;5.43;4.30;;;;;;;;;;5073386;28;20196;-61
2024/01/05 07:43:27;;;;;;;7.43;5.10;;;;;;;;;;5073633;28;20221;-61
2024/01/05 07:45:54;;;;;;;10.02;4.78;;;;;;;;;;5073489;28;20297;-61
2024/01/05 07:48:21;;;;;;;4.53;4.18;;;;;;;;;;5073440;28;20201;-62
2024/01/05 07:50:49;;;;;;;7.85;5.05;;;;;;;;;;5073436;28;20204;-61
2024/01/05 07:53:16;;;;;;;4.22;3.92;;;;;;;;;;5073229;28;20231;-61
2024/01/05 07:55:44;;;;;;;4.32;3.90;;;;;;;;;;5073230;28;20308;-61
2024/01/05 07:58:11;;;;;;;4.90;4.50;;;;;;;;;;5073334;28;20217;-61
2024/01/05 08:00:39;;;;;;;7.70;4.10;;;;;;;;;;5073321;28;20555;-61
2024/01/05 08:03:06;;;;;;;6.10;4.28;;;;;;;;;;5073239;28;20195;-61
2024/01/05 08:05:33;;;;;;;4.85;3.88;;;;;;;;;;5073043;28;20411;-62
2024/01/05 08:08:01;;;;;;;8.90;6.25;;;;;;;;;;5072905;28;20271;-62
2024/01/05 08:10:29;;;;;;;4.68;4.25;;;;;;;;;;5073265;28;20223;-62
2024/01/05 08:12:56;;;;;;;4.82;3.38;;;;;;;;;;5073211;28;20193;-62
2024/01/05 08:15:24;;;;;;;6.28;3.95;;;;;;;;;;5072950;28;20203;-62
2024/01/05 08:17:51;;;;;;;5.05;4.65;;;;;;;;;;5072829;28;20186;-61
2024/01/05 08:20:18;;;;;;;4.47;3.10;;;;;;;;;;5072926;28;20243;-62
2024/01/05 08:22:45;;;;;;;4.30;3.90;;;;;;;;;;5071902;28;20181;-62
2024/01/05 08:25:14;;;;;;;6.20;4.85;;;;;;;;;;5081638;28;20208;-62
2024/01/05 08:27:41;;;;;;;6.05;4.00;;;;;;;;;;5081050;28;20748;-62
2024/01/05 08:30:08;;;;;;;6.65;4.07;;;;;;;;;;5078016;28;20214;-61
2024/01/05 08:32:35;;;;;;;5.55;5.00;;;;;;;;;;5079047;28;20456;-62
2024/01/05 08:35:02;;;;;;;5.70;4.30;;;;;;;;;;5080718;28;20216;-62
2024/01/05 08:37:29;;;;;;;4.70;4.13;;;;;;;;;;5081015;28;20476;-62
2024/01/05 08:39:56;;;;;;;3.67;3.17;;;;;;;;;;5080520;28;20191;-61
2024/01/05 08:42:25;;;;;;;5.50;4.50;;;;;;;;;;5078631;28;20443;-62
2024/01/05 08:44:51;;;;;;;6.32;5.00;;;;;;;;;;5080085;28;20540;-62
2024/01/05 08:47:18;;;;;;;5.00;4.50;;;;;;;;;;5078011;28;20525;-62
2024/01/05 08:49:45;;;;;;;5.43;4.70;;;;;;;;;;5079587;28;20537;-62
2024/01/05 08:52:12;;;;;;;4.40;3.50;;;;;;;;;;5079171;28;20185;-62
2024/01/05 08:54:40;;;;;;;4.15;3.75;;;;;;;;;;5071902;28;20443;-62
2024/01/05 08:57:10;;;;;;;4.70;4.30;;;;;;;;;;5072091;28;20217;-62
2024/01/05 08:59:39;;;;;;;4.22;3.88;;;;;;;;;;5072092;28;20185;-62
2024/01/05 09:02:06;;;;;;;4.88;3.65;;;;;;;;;;5071894;28;20182;-62
2024/01/05 09:04:33;;;;;;;6.03;3.60;;;;;;;;;;5072155;28;20587;-62
2024/01/05 09:07:00;;;;;;;4.15;3.75;;;;;;;;;;5069859;28;20300;-62
2024/01/05 09:09:27;;;;;;;4.50;4.10;;;;;;;;;;5072698;28;20189;-62
2024/01/05 09:11:54;;;;;;;4.35;3.40;;;;;;;;;;5072343;28;20192;-62
2024/01/05 09:14:21;;;;;;;4.00;3.35;;;;;;;;;;5072623;28;20280;-62
2024/01/05 09:16:49;;;;;;;3.70;3.28;;;;;;;;;;5072370;28;20193;-62
2024/01/05 09:19:16;;;;;;;3.92;3.45;;;;;;;;;;5072687;28;20193;-62
2024/01/05 09:21:43;;;;;;;4.40;4.00;;;;;;;;;;5072469;28;20189;-62
2024/01/05 09:24:11;;;;;;;4.65;3.58;;;;;;;;;;5072404;28;20284;-62
2024/01/05 09:26:38;;;;;;;4.88;3.83;;;;;;;;;;5072190;28;20224;-62
2024/01/05 09:29:05;;;;;;;4.25;3.90;;;;;;;;;;5072230;28;20193;-61
2024/01/05 09:31:32;;;;;;;4.57;4.15;;;;;;;;;;5072136;28;20636;-62
2024/01/05 09:34:01;;;;;;;4.18;3.75;;;;;;;;;;5072437;28;20554;-62
2024/01/05 09:36:28;;;;;;;3.47;3.17;;;;;;;;;;5072295;28;20549;-62
2024/01/05 09:38:55;;;;;;;3.75;2.97;;;;;;;;;;5072181;28;20276;-62
2024/01/05 09:41:22;;;;;;;3.97;3.63;;;;;;;;;;5072087;28;20190;-62
2024/01/05 09:43:49;;;;;;;4.93;2.70;;;;;;;;;;5073295;28;20189;-62
2024/01/05 09:46:18;;;;;;;3.92;3.30;;;;;;;;;;5075597;28;20575;-62
2024/01/05 09:48:45;;;;;;;10.05;3.70;;;;;;;;;;5075923;28;20221;-62
2024/01/05 09:51:14;;;;;;;2.90;2.70;;;;;;;;;;5075659;28;20287;-61
2024/01/05 09:53:42;;;;;;;3.03;2.80;;;;;;;;;;5075418;28;20190;-62
2024/01/05 09:56:10;;;;;;;5.28;4.78;;;;;;;;;;5075660;28;20231;-61
2024/01/05 09:58:37;;;;;;;5.32;3.45;;;;;;;;;;5075421;28;20193;-61
2024/01/05 10:01:07;;;;;;;4.80;4.05;;;;;;;;;;5075606;28;20197;-61
2024/01/05 10:03:35;;;;;;;7.78;4.10;;;;;;;;;;5075531;28;20199;-61
2024/01/05 10:06:01;;;;;;;3.80;3.50;;;;;;;;;;5075346;28;20221;-62
2024/01/05 10:08:30;;;;;;;3.40;3.10;;;;;;;;;;5075308;28;20553;-62
2024/01/05 10:10:59;;;;;;;3.10;2.90;;;;;;;;;;5075121;28;20192;-61
2024/01/05 10:13:26;;;;;;;8.43;3.13;;;;;;;;;;5075371;28;20215;-61
2024/01/05 10:15:54;;;;;;;3.08;2.75;;;;;;;;;;5075177;28;20284;-61
2024/01/05 10:18:21;;;;;;;3.70;2.95;;;;;;;;;;5074732;28;20190;-61
2024/01/05 10:20:48;;;;;;;4.13;3.60;;;;;;;;;;5074510;28;20605;-61
2024/01/05 10:23:16;;;;;;;3.42;3.13;;;;;;;;;;5074455;28;20281;-61
2024/01/05 10:25:46;;;;;;;3.83;3.50;;;;;;;;;;5074437;28;20219;-62
2024/01/05 10:28:24;;;;;;;3.63;3.33;;;;;;;;;;5075026;28;20228;-61
2024/01/05 10:30:52;;;;;;;4.32;3.50;;;;;;;;;;5074887;28;20221;-62
2024/01/05 10:33:20;;;;;;;3.60;3.15;;;;;;;;;;5074728;28;20216;-62
2024/01/05 10:35:47;;;;;;;3.40;3.10;;;;;;;;;;5074749;28;20649;-62
2024/01/05 10:38:14;;;;;;;3.92;3.55;;;;;;;;;;5074491;28;20217;-62
2024/01/05 10:40:42;;;;;;;7.65;3.45;;;;;;;;;;5074836;28;20189;-62
2024/01/05 10:43:11;;;;;;;3.10;2.80;;;;;;;;;;5074695;28;20556;-62
2024/01/05 10:45:39;;;;;;;2.53;2.35;;;;;;;;;;5074119;28;20192;-62
2024/01/05 10:48:07;;;;;;;3.45;2.95;;;;;;;;;;5074176;28;20220;-62
2024/01/05 10:50:36;;;;;;;2.97;2.65;;;;;;;;;;5074409;28;20200;-62
2024/01/05 10:53:03;;;;;;;3.38;2.90;;;;;;;;;;5074518;28;20186;-62
2024/01/05 10:55:32;;;;;;;4.57;3.30;;;;;;;;;;5073355;28;20227;-62
2024/01/05 10:57:59;;;;;;;3.30;3.10;;;;;;;;;;5074442;28;20193;-62
2024/01/05 11:00:28;;;;;;;2.85;2.55;;;;;;;;;;5074211;28;20189;-62
2024/01/05 11:03:02;;;;;;;4.90;2.63;;;;;;;;;;5073964;28;20221;-62
2024/01/05 11:05:29;;;;;;;2.78;2.50;;;;;;;;;;5074192;28;20189;-62
2024/01/05 11:07:57;;;;;;;2.92;2.72;;;;;;;;;;5074308;28;20284;-61
2024/01/05 11:10:29;;;;;;;3.22;3.03;;;;;;;;;;5074192;28;20193;-62
2024/01/05 11:13:10;;;;;;;3.75;3.15;;;;;;;;;;5073825;28;20200;-61
2024/01/05 11:15:48;;;;;;;3.17;2.90;;;;;;;;;;5074153;28;20200;-62
2024/01/05 11:18:38;;;;;;;3.03;2.65;;;;;;;;;;5074077;28;20190;-61
2024/01/05 11:21:08;;;;;;;3.40;3.15;;;;;;;;;;5073790;28;20199;-61
2024/01/05 11:23:36;;;;;;;3.58;3.33;;;;;;;;;;5073698;28;20193;-61
2024/01/05 11:26:03;;;;;;;3.15;2.95;;;;;;;;;;5073488;28;20310;-62
2024/01/05 11:28:34;;;;;;;4.85;3.25;;;;;;;;;;5073802;28;20190;-62
2024/01/05 11:31:02;;;;;;;3.15;2.88;;;;;;;;;;5073827;28;20193;-62
2024/01/05 11:33:43;;;;;;;3.00;2.80;;;;;;;;;;5073680;28;20243;-61
2024/01/05 11:36:10;;;;;;;3.83;3.38;;;;;;;;;;5073529;28;20679;-61
2024/01/05 11:38:43;;;;;;;5.07;3.83;;;;;;;;;;5073304;28;20193;-61
2024/01/05 11:41:16;;;;;;;4.20;3.05;;;;;;;;;;5073611;28;20568;-61
2024/01/05 11:43:43;;;;;;;3.65;3.35;;;;;;;;;;5073487;28;20201;-62
2024/01/05 11:46:12;;;;;;;4.80;3.70;;;;;;;;;;5073348;28;20209;-61
2024/01/05 11:48:47;;;;;;;3.97;3.67;;;;;;;;;;5073314;28;20189;-61
2024/01/05 11:51:14;;;;;;;3.83;3.50;;;;;;;;;;5073073;28;20197;-61
2024/01/05 11:53:41;;;;;;;4.30;3.90;;;;;;;;;;5073186;28;20214;-61
2024/01/05 11:56:10;;;;;;;4.88;4.45;;;;;;;;;;5073365;28;20189;-61
2024/01/05 11:58:38;;;;;;;4.75;4.35;;;;;;;;;;5073269;28;20193;-61
2024/01/05 12:01:07;;;;;;;4.65;4.25;;;;;;;;;;5073168;28;20247;-61
2024/01/05 12:03:35;;;;;;;4.68;4.28;;;;;;;;;;5072998;28;20192;-61
2024/01/05 12:06:03;;;;;;;5.28;4.78;;;;;;;;;;5073210;28;20197;-61
2024/01/05 12:08:30;;;;;;;4.80;4.18;;;;;;;;;;5073239;28;20254;-61
2024/01/05 12:10:57;;;;;;;6.05;3.83;;;;;;;;;;5073074;28;20189;-61
2024/01/05 12:13:26;;;;;;;4.30;3.90;;;;;;;;;;5072920;28;20195;-61
2024/01/05 12:15:54;;;;;;;3.88;3.53;;;;;;;;;;5072956;28;20216;-61
2024/01/05 12:18:25;;;;;;;5.03;4.00;;;;;;;;;;5073153;28;20189;-61
2024/01/05 12:20:55;;;;;;;3.38;3.17;;;;;;;;;;5072967;28;20762;-61
2024/01/05 12:23:22;;;;;;;5.35;3.97;;;;;;;;;;5072996;28;20220;-61
2024/01/05 12:25:58;;;;;;;4.05;3.70;;;;;;;;;;5072885;28;20280;-61
2024/01/05 12:28:25;;;;;;;4.30;4.00;;;;;;;;;;5072822;28;20208;-61
2024/01/05 12:30:52;;;;;;;4.80;4.35;;;;;;;;;;5073062;28;20528;-61
2024/01/05 12:33:19;;;;;;;4.43;4.03;;;;;;;;;;5072878;28;20203;-61
2024/01/05 12:35:48;;;;;;;4.15;3.75;;;;;;;;;;5072913;28;20185;-61
2024/01/05 12:38:23;;;;;;;3.83;3.53;;;;;;;;;;5072665;28;20197;-61
2024/01/05 12:40:50;;;;;;;4.30;3.90;;;;;;;;;;5072817;28;20184;-62
2024/01/05 12:43:17;;;;;;;6.40;4.60;;;;;;;;;;5072934;28;20192;-61
2024/01/05 12:45:47;;;;;;;4.95;4.28;;;;;;;;;;5072773;28;20201;-61
2024/01/05 12:48:14;;;;;;;4.07;3.45;;;;;;;;;;5072630;28;20256;-61
2024/01/05 12:50:41;;;;;;;3.80;3.50;;;;;;;;;;5072771;28;20189;-61
2024/01/05 12:53:17;;;;;;;4.18;3.75;;;;;;;;;;5072737;28;20185;-61
2024/01/05 12:55:45;;;;;;;5.15;3.75;;;;;;;;;;5072552;28;20315;-61
2024/01/05 12:58:12;;;;;;;3.95;3.45;;;;;;;;;;5072735;28;20204;-61
2024/01/05 13:00:42;;;;;;;4.65;3.88;;;;;;;;;;5072711;28;20243;-61
2024/01/05 13:03:14;;;;;;;6.03;4.15;;;;;;;;;;5072807;28;20199;-61
2024/01/05 13:05:40;;;;;;;4.25;3.95;;;;;;;;;;5072620;28;20281;-61
2024/01/05 13:08:07;;;;;;;5.68;5.18;;;;;;;;;;5072344;28;20219;-61
2024/01/05 13:10:34;;;;;;;5.13;4.55;;;;;;;;;;5072628;28;20196;-61
2024/01/05 13:13:03;;;;;;;4.43;4.13;;;;;;;;;;5072611;28;20193;-61
2024/01/05 13:15:30;;;;;;;3.55;3.25;;;;;;;;;;5072739;28;20217;-61
2024/01/05 13:17:57;;;;;;;4.28;3.85;;;;;;;;;;5072640;28;20667;-61
2024/01/05 13:20:25;;;;;;;5.60;4.80;;;;;;;;;;5076213;28;20193;-61
2024/01/05 13:22:52;;;;;;;3.90;3.60;;;;;;;;;;5076417;28;20191;-61
2024/01/05 13:25:19;;;;;;;5.95;4.25;;;;;;;;;;5076285;28;20204;-61
2024/01/05 13:27:46;;;;;;;4.47;3.95;;;;;;;;;;5075980;28;20218;-61
2024/01/05 13:30:15;;;;;;;6.78;4.60;;;;;;;;;;5076011;28;20224;-61
2024/01/05 13:32:42;;;;;;;6.07;5.00;;;;;;;;;;5076020;28;20189;-61
2024/01/05 13:35:10;;;;;;;4.20;3.90;;;;;;;;;;5075878;28;20216;-61
2024/01/05 13:37:37;;;;;;;6.43;4.65;;;;;;;;;;5076121;28;20333;-61
2024/01/05 13:40:04;;;;;;;4.50;4.20;;;;;;;;;;5075983;28;20193;-61
2024/01/05 13:42:31;;;;;;;4.25;3.90;;;;;;;;;;5076007;28;20552;-61
2024/01/05 13:44:58;;;;;;;5.45;4.95;;;;;;;;;;5075639;28;20195;-61
2024/01/05 13:47:27;;;;;;;5.03;4.63;;;;;;;;;;5075632;28;20575;-61
2024/01/05 13:49:54;;;;;;;4.90;4.20;;;;;;;;;;5075912;28;20189;-61
2024/01/05 13:52:21;;;;;;;6.78;5.18;;;;;;;;;;5075747;28;20619;-61
2024/01/05 13:54:49;;;;;;;5.50;4.97;;;;;;;;;;5075525;28;20704;-61
2024/01/05 13:57:16;;;;;;;7.65;4.60;;;;;;;;;;5075594;28;20272;-61
2024/01/05 13:59:43;;;;;;;7.35;5.50;;;;;;;;;;5075614;28;20623;-61
2024/01/05 14:02:10;;;;;;;5.70;5.10;;;;;;;;;;5075471;28;20224;-61
2024/01/05 14:04:38;;;;;;;5.35;4.90;;;;;;;;;;5075379;28;20276;-61
2024/01/05 14:07:05;;;;;;;5.68;5.07;;;;;;;;;;5075383;28;20568;-61
2024/01/05 14:09:32;;;;;;;6.00;5.45;;;;;;;;;;5075327;28;20280;-61
2024/01/05 14:11:59;;;;;;;5.32;4.82;;;;;;;;;;5075379;28;20196;-61
2024/01/05 14:14:26;;;;;;;5.07;4.65;;;;;;;;;;5075137;28;20189;-61
2024/01/05 14:16:53;;;;;;;5.60;5.10;;;;;;;;;;5075098;28;20282;-61
2024/01/05 14:19:20;;;;;;;7.35;5.70;;;;;;;;;;5075351;28;20189;-61
2024/01/05 14:21:48;;;;;;;8.30;5.63;;;;;;;;;;5075196;28;20617;-61
2024/01/05 14:24:15;;;;;;;5.88;5.25;;;;;;;;;;5075187;28;20227;-61
2024/01/05 14:26:45;;;;;;;5.40;4.82;;;;;;;;;;5075024;28;20255;-61
2024/01/05 14:29:12;;;;;;;6.53;4.63;;;;;;;;;;5075136;28;20189;-61
2024/01/05 14:31:39;;;;;;;5.60;5.07;;;;;;;;;;5074110;28;20272;-61
2024/01/05 14:34:06;;;;;;;7.60;5.32;;;;;;;;;;5075054;28;20200;-60
2024/01/05 14:36:33;;;;;;;6.35;5.70;;;;;;;;;;5074984;28;20200;-61
2024/01/05 14:39:02;;;;;;;6.00;5.45;;;;;;;;;;5074975;28;20197;-61
2024/01/05 14:41:29;;;;;;;6.95;5.97;;;;;;;;;;5074743;28;20219;-60
2024/01/05 14:43:56;;;;;;;6.60;5.60;;;;;;;;;;5074604;28;20280;-61
2024/01/05 14:46:23;;;;;;;6.60;5.30;;;;;;;;;;5074817;28;20189;-61